WetterOnline ( http://www.wetteronline.de )

Wetter aktuell Weidenthal

Aktuelles Wetter: Weinbiet/Pfalz (557m)

6-stündlich | Neueste Meldungen
Ortszeit Temperatur Wetter
Fr, 22.02. 19:00 6.6° C leicht bewölkt
Fr, 22.02. 13:00 9.0° C bedeckt
Fr, 22.02. 7:00 6.9° C bedeckt
Fr, 22.02. 1:00 7.3° C bewölkt
Do, 21.02. 19:00 9.2° C bedeckt
Do, 21.02. 13:00 10.0° C bewölkt
Do, 21.02. 7:00 4.2° C wolkig
Do, 21.02. 1:00 4.9° C leicht bewölkt
Ortszeit Temperatur Wetter
Sa, 23.02. 0:30 4.4° C wolkig
Sa, 23.02. 0:10 4.6° C wolkig
Sa, 23.02. 0:00 4.6° C wolkig
Fr, 22.02. 23:50 4.6° C wolkig
Fr, 22.02. 23:40 4.8° C wolkig
Fr, 22.02. 23:30 5.0° C wolkig
Fr, 22.02. 23:00 5.3° C wolkig
Fr, 22.02. 22:30 5.6° C wolkig
Fr, 22.02. 22:00 5.6° C wolkig
Fr, 22.02. 21:30 5.8° C wolkig
Ortszeit Relative Feuchte Sichtweite
Fr, 22.02. 19:00 80% 10 km
Fr, 22.02. 13:00 74% 10 km
Fr, 22.02. 7:00 90% 9 km
Fr, 22.02. 1:00 81% 10 km
Do, 21.02. 19:00 69% 10 km
Do, 21.02. 13:00 67% 10 km
Do, 21.02. 7:00 95% 10 km
Do, 21.02. 1:00 85% 10 km
Ortszeit Relative Feuchte Sichtweite
Sa, 23.02. 0:30 89% 10 km
Sa, 23.02. 0:10 88% -
Sa, 23.02. 0:00 87% 10 km
Fr, 22.02. 23:50 87% -
Fr, 22.02. 23:40 87% -
Fr, 22.02. 23:30 86% 10 km
Fr, 22.02. 23:00 84% 10 km
Fr, 22.02. 22:30 83% 9 km
Fr, 22.02. 22:00 83% 9 km
Fr, 22.02. 21:30 82% 10 km
Ortszeit Niederschlagsmenge Niederschlagsart
Fr, 22.02. 19:00 0.1 l/m2 in 12 Std. -
Fr, 22.02. 13:00 0.1 l/m2 in 6 Std. Sprühregen
Fr, 22.02. 7:00 0.1 l/m2 in 12 Std. -
Fr, 22.02. 1:00 0.1 l/m2 in 6 Std. Regen
Do, 21.02. 19:00 0.0 l/m2 in 12 Std. -
Do, 21.02. 13:00 0.0 l/m2 in 6 Std. -
Do, 21.02. 7:00 0.0 l/m2 in 12 Std. -
Do, 21.02. 1:00 0.0 l/m2 in 6 Std. -
Ortszeit Niederschlagsmenge Niederschlagsart
Sa, 23.02. 0:30 0.0 l/m2 in 1 Std. -
Sa, 23.02. 0:10 keine Meldung -
Sa, 23.02. 0:00 0.0 l/m2 in 1 Std. -
Fr, 22.02. 23:50 keine Meldung -
Fr, 22.02. 23:40 keine Meldung -
Fr, 22.02. 23:30 0.0 l/m2 in 1 Std. -
Fr, 22.02. 23:00 0.0 l/m2 in 1 Std. -
Fr, 22.02. 22:30 0.0 l/m2 in 1 Std. -
Fr, 22.02. 22:00 0.0 l/m2 in 1 Std. -
Fr, 22.02. 21:30 0.0 l/m2 in 1 Std. -
Ortszeit Stärke Spitze Richtung
km/h Bft. km/h Grad Sektor
Fr, 22.02. 19:00 24 4 33 40° NO
Fr, 22.02. 13:00 9 2 26 50° NO
Fr, 22.02. 7:00 14 3 32 310° NW
Fr, 22.02. 1:00 25 4 47 280° W
Do, 21.02. 19:00 22 4 36 280° W
Do, 21.02. 13:00 7 2 22 270° W
Do, 21.02. 7:00 22 4 29 260° W
Do, 21.02. 1:00 28 4 33 260° W
Ortszeit Stärke Spitze Richtung
km/h Bft. km/h Grad Sektor
Sa, 23.02. 0:30 25 4 32 100° O
Sa, 23.02. 0:10 25 4 - 100° O
Sa, 23.02. 0:00 22 4 29 80° O
Fr, 22.02. 23:50 22 4 - 80° O
Fr, 22.02. 23:40 20 4 - 80° O
Fr, 22.02. 23:30 19 3 24 70° O
Fr, 22.02. 23:00 18 3 32 50° NO
Fr, 22.02. 22:30 22 4 32 50° NO
Fr, 22.02. 22:00 22 4 37 50° NO
Fr, 22.02. 21:30 22 4 37 50° NO
Ortszeit Untergrenze Bedeckung Gattung
total tief tief mittel hoch
Fr, 22.02. 19:00 10500 m 6/8 0/8 - - -
Fr, 22.02. 13:00 450 m 8/8 8/8 - - -
Fr, 22.02. 7:00 420 m 8/8 8/8 - - -
Fr, 22.02. 1:00 900 m 7/8 7/8 - - -
Do, 21.02. 19:00 1800 m 8/8 8/8 - - -
Do, 21.02. 13:00 1440 m 8/8 7/8 - - -
Do, 21.02. 7:00 1500 m 7/8 5/8 - - -
Do, 21.02. 1:00 2400 m 2/8 1/8 - - -
Ortszeit Bedeckungsgrad in Achtel und Wolkenuntergrenze
Sa, 23.02. 0:30 8(9000m) 8(10500m)
Sa, 23.02. 0:10 8(9000m) 8(10500m)
Sa, 23.02. 0:00 6(9000m) 8(10500m)
Fr, 22.02. 23:50 6(9000m) 8(10500m)
Fr, 22.02. 23:40 4(9000m) 8(10500m)
Fr, 22.02. 23:30 8(10500m) 8(10500m)
Fr, 22.02. 23:00 8(10500m)
Fr, 22.02. 22:30 8(10500m)
Fr, 22.02. 22:00 8(10500m)
Fr, 22.02. 21:30 8(10500m)
Ortszeit Luftdruck NN (hPa) Tendenz (hPa in 3 Std.)
Fr, 22.02. 19:00 1037 + 0,2
Fr, 22.02. 13:00 1036 + 1,0
Fr, 22.02. 7:00 1033 + 1,0
Fr, 22.02. 1:00 1031 + 0,8
Do, 21.02. 19:00 1029 + 0,8
Do, 21.02. 13:00 1028 + 0,3
Do, 21.02. 7:00 1028 + 0,1
Do, 21.02. 1:00 1027 + 0,4
Ortszeit Luftdruck NN (hPa) Tendenz (hPa in 3 Std.)
Sa, 23.02. 0:30 1038 + 0,1
Sa, 23.02. 0:10 1038 keine Meldung
Sa, 23.02. 0:00 1039 + 0,4
Fr, 22.02. 23:50 1039 keine Meldung
Fr, 22.02. 23:40 1039 keine Meldung
Fr, 22.02. 23:30 1038 + 0,4
Fr, 22.02. 23:00 1038 + 0,9
Fr, 22.02. 22:30 1038 + 0,8
Fr, 22.02. 22:00 1038 + 0,8
Fr, 22.02. 21:30 1038 + 0,8
Ortszeit Schneehöhe (cm)
Fr, 22.02. 19:00 0
Fr, 22.02. 13:00 0
Fr, 22.02. 7:00 0
Fr, 22.02. 1:00 0
Do, 21.02. 19:00 0
Do, 21.02. 13:00 0
Do, 21.02. 7:00 0
Do, 21.02. 1:00 0
Ortszeit Schneehöhe (cm)
Sa, 23.02. 0:30 0
Sa, 23.02. 0:10 0
Sa, 23.02. 0:00 0
Fr, 22.02. 23:50 0
Fr, 22.02. 23:40 0
Fr, 22.02. 23:30 0
Fr, 22.02. 23:00 0
Fr, 22.02. 22:30 0
Fr, 22.02. 22:00 0
Fr, 22.02. 21:30 0
Link zu dieser Seite / Seite empfehlen

Das Wetter in ...